createdAt,value
2019-03-18T00:00:54.017Z,4.36
2019-03-18T00:01:54.051Z,4.36
2019-03-18T00:02:53.953Z,4.39
2019-03-18T00:03:53.964Z,4.32
2019-03-18T00:04:53.887Z,4.40
2019-03-18T00:05:53.862Z,4.40
2019-03-18T00:06:53.824Z,4.37
2019-03-18T00:07:53.885Z,4.37
2019-03-18T00:08:53.766Z,4.39
2019-03-18T00:09:53.793Z,4.43
2019-03-18T00:10:53.813Z,4.42
2019-03-18T00:11:53.681Z,4.33
2019-03-18T00:12:53.703Z,4.36
2019-03-18T00:13:53.609Z,4.36
2019-03-18T00:15:01.152Z,4.37
2019-03-18T00:15:53.543Z,4.36
2019-03-18T00:16:53.526Z,4.37
2019-03-18T00:17:53.554Z,4.28
2019-03-18T00:18:53.455Z,4.32
2019-03-18T00:19:53.457Z,4.36
2019-03-18T00:20:53.384Z,4.29
2019-03-18T00:21:53.352Z,4.39
2019-03-18T00:22:53.324Z,4.33
2019-03-18T00:23:53.362Z,4.34
2019-03-18T00:24:53.269Z,4.26
2019-03-18T00:25:53.283Z,4.36
2019-03-18T00:26:53.203Z,4.29
2019-03-18T00:27:53.167Z,4.29
2019-03-18T00:28:53.138Z,4.29
2019-03-18T00:29:53.197Z,4.34
2019-03-18T00:30:53.074Z,4.25
2019-03-18T00:31:53.109Z,4.22
2019-03-18T00:32:53.002Z,4.21
2019-03-18T00:33:52.972Z,4.21
2019-03-18T00:34:53.025Z,4.22
2019-03-18T00:35:52.913Z,4.24
2019-03-18T00:36:52.934Z,4.18
2019-03-18T00:37:52.854Z,4.19
2019-03-18T00:38:52.823Z,4.24
2019-03-18T00:39:52.783Z,4.24
2019-03-18T00:40:52.855Z,4.21
2019-03-18T00:41:52.734Z,4.16
2019-03-18T00:42:52.762Z,4.15
2019-03-18T00:43:52.664Z,4.21
2019-03-18T00:44:52.640Z,4.19
2019-03-18T00:45:52.687Z,4.19
2019-03-18T00:46:52.572Z,4.19
2019-03-18T00:47:52.595Z,4.19
2019-03-18T00:48:52.511Z,4.19
2019-03-18T00:49:52.474Z,4.24
2019-03-18T00:50:52.443Z,4.21
2019-03-18T00:51:52.512Z,4.19
2019-03-18T00:52:52.398Z,4.19
2019-03-18T00:53:52.437Z,4.19
2019-03-18T00:54:52.314Z,4.19
2019-03-18T00:55:52.283Z,4.15
2019-03-18T00:56:52.343Z,4.10
2019-03-18T00:57:52.230Z,4.15
2019-03-18T00:58:52.252Z,4.15
2019-03-18T00:59:52.161Z,4.08
2019-03-18T01:00:52.132Z,4.10
2019-03-18T01:01:52.102Z,4.10
2019-03-18T01:02:52.070Z,4.01
2019-03-18T01:03:52.067Z,4.06
2019-03-18T01:04:52.080Z,4.19
2019-03-18T01:05:51.974Z,4.15
2019-03-18T01:06:51.932Z,4.07
2019-03-18T01:07:52.027Z,4.10
2019-03-18T01:08:51.871Z,4.03
2019-03-18T01:09:51.913Z,4.12
2019-03-18T01:10:51.814Z,4.10
2019-03-18T01:11:51.780Z,4.08
2019-03-18T01:12:51.753Z,4.06
2019-03-18T01:13:51.732Z,4.10
2019-03-18T01:14:51.702Z,4.08
2019-03-18T01:15:51.746Z,4.04
2019-03-18T01:16:51.647Z,3.97
2019-03-18T01:17:51.609Z,4.12
2019-03-18T01:18:51.577Z,4.08
2019-03-18T01:19:51.569Z,4.06
2019-03-18T01:20:51.493Z,4.15
2019-03-18T01:21:51.582Z,4.10
2019-03-18T01:22:51.435Z,4.03
2019-03-18T01:23:51.497Z,4.08
2019-03-18T01:24:51.395Z,4.14
2019-03-18T01:25:51.405Z,4.16
2019-03-18T01:26:51.304Z,4.06
2019-03-18T01:27:51.319Z,4.15
2019-03-18T01:28:51.324Z,4.07
2019-03-18T01:29:51.213Z,4.16
2019-03-18T01:30:51.220Z,4.06
2019-03-18T01:31:51.154Z,4.10
2019-03-18T01:32:51.132Z,4.14
2019-03-18T01:33:51.083Z,4.03
2019-03-18T01:34:51.055Z,4.07
2019-03-18T01:35:51.061Z,4.07
2019-03-18T01:36:50.996Z,4.08
2019-03-18T01:37:51.060Z,4.10
2019-03-18T01:38:50.933Z,4.10
2019-03-18T01:39:50.896Z,4.01
2019-03-18T01:40:50.872Z,4.00
2019-03-18T01:41:50.894Z,4.12
2019-03-18T01:42:50.862Z,4.08
2019-03-18T01:43:50.791Z,4.15
2019-03-18T01:44:50.732Z,4.06
2019-03-18T01:45:50.724Z,4.07
2019-03-18T01:46:50.710Z,4.12
2019-03-18T01:47:50.646Z,4.08
2019-03-18T01:48:50.720Z,3.96
2019-03-18T01:49:50.593Z,4.07
2019-03-18T01:50:50.555Z,4.03
2019-03-18T01:51:50.532Z,4.04
2019-03-18T01:52:50.542Z,4.14
2019-03-18T01:53:50.453Z,4.07
2019-03-18T01:54:50.456Z,3.98
2019-03-18T01:55:50.392Z,4.07
2019-03-18T01:56:50.361Z,4.03
2019-03-18T01:57:50.325Z,4.07
2019-03-18T01:58:50.381Z,4.04
2019-03-18T01:59:50.263Z,4.07
2019-03-18T02:00:50.295Z,4.08
2019-03-18T02:01:50.200Z,4.08
2019-03-18T02:02:51.933Z,4.12
2019-03-18T02:03:50.134Z,4.10
2019-03-18T02:04:50.222Z,4.14
2019-03-18T02:05:50.076Z,4.03
2019-03-18T02:06:50.141Z,4.08
2019-03-18T02:07:50.133Z,4.15
2019-03-18T02:08:49.980Z,4.06
2019-03-18T02:09:50.042Z,4.03
2019-03-18T02:10:49.915Z,4.06
2019-03-18T02:11:49.950Z,4.04
2019-03-18T02:12:49.875Z,4.06
2019-03-18T02:13:49.821Z,4.18
2019-03-18T02:14:49.862Z,4.08
2019-03-18T02:15:53.466Z,4.03
2019-03-18T02:16:49.771Z,4.12
2019-03-18T02:17:49.704Z,4.10
2019-03-18T02:18:49.667Z,4.08
2019-03-18T02:19:49.630Z,4.06
2019-03-18T02:20:49.699Z,4.06
2019-03-18T02:21:49.572Z,4.03
2019-03-18T02:24:21.251Z,4.12
2019-03-18T02:25:21.196Z,4.03
2019-03-18T02:27:25.213Z,4.03
2019-03-18T02:28:25.104Z,4.12
2019-03-18T02:30:29.132Z,4.00
2019-03-18T02:31:29.014Z,4.03
2019-03-18T02:33:33.036Z,4.06
2019-03-18T02:34:32.921Z,4.04
2019-03-18T02:36:25.870Z,4.03
2019-03-18T02:37:25.797Z,4.03
2019-03-18T02:39:29.792Z,4.06
2019-03-18T02:40:29.681Z,4.15
2019-03-18T02:42:33.703Z,4.16
2019-03-18T02:43:33.599Z,4.15
2019-03-18T02:45:37.614Z,4.12
2019-03-18T02:46:37.512Z,4.21
2019-03-18T02:48:41.529Z,4.22
2019-03-18T02:49:41.414Z,4.24
2019-03-18T02:51:46.353Z,4.25
2019-03-18T02:52:46.252Z,4.24
2019-03-18T02:54:51.192Z,4.28
2019-03-18T02:55:51.081Z,4.32
2019-03-18T02:57:55.962Z,4.33
2019-03-18T02:58:55.911Z,4.37
2019-03-18T03:00:59.932Z,4.34
2019-03-18T03:01:59.822Z,4.40
2019-03-18T03:04:03.842Z,4.28
2019-03-18T03:05:03.730Z,4.50
2019-03-18T03:07:08.669Z,4.44
2019-03-18T03:08:08.573Z,4.34
2019-03-18T03:10:13.503Z,4.47
2019-03-18T03:11:13.394Z,4.43
2019-03-18T03:13:18.333Z,4.43
2019-03-18T03:14:18.223Z,4.44
2019-03-18T03:16:25.613Z,4.46
2019-03-18T03:17:11.085Z,4.46
2019-03-18T03:19:15.091Z,4.54
2019-03-18T03:20:15.054Z,4.62
2019-03-18T03:22:19.003Z,4.61
2019-03-18T03:23:19.013Z,4.58
2019-03-18T03:25:25.205Z,4.59
2019-03-18T03:26:23.722Z,4.40
2019-03-18T03:28:27.755Z,4.55
2019-03-18T03:29:27.634Z,4.42
2019-03-18T03:31:31.592Z,4.44
2019-03-18T03:32:31.651Z,4.44
2019-03-18T03:34:35.561Z,4.47
2019-03-18T03:35:35.459Z,4.47
2019-03-18T03:37:39.471Z,4.47
2019-03-18T03:38:39.363Z,4.50
2019-03-18T03:40:43.381Z,4.51
2019-03-18T03:41:43.316Z,4.44
2019-03-18T03:43:47.293Z,4.52
2019-03-18T03:44:47.183Z,4.55
2019-03-18T03:46:43.568Z,4.52
2019-03-18T03:47:40.065Z,4.52
2019-03-18T03:49:44.051Z,4.57
2019-03-18T03:50:43.953Z,4.67
2019-03-18T03:52:47.974Z,4.64
2019-03-18T03:53:47.937Z,4.62
2019-03-18T03:55:51.873Z,4.61
2019-03-18T03:56:51.784Z,4.58
2019-03-18T03:58:55.819Z,4.59
2019-03-18T03:59:55.699Z,4.58
2019-03-18T04:01:59.704Z,4.52
2019-03-18T04:02:59.596Z,4.57
2019-03-18T04:05:03.554Z,4.51
2019-03-18T04:06:03.513Z,4.52
2019-03-18T04:08:07.514Z,4.61
2019-03-18T04:09:07.424Z,4.52
2019-03-18T04:11:11.463Z,4.58
2019-03-18T04:12:11.343Z,4.59
2019-03-18T04:14:15.341Z,4.52
2019-03-18T04:15:15.232Z,4.64
2019-03-18T04:17:19.247Z,4.61
2019-03-18T04:18:19.157Z,4.59
2019-03-18T04:20:23.159Z,4.58
2019-03-18T04:21:23.067Z,4.61
2019-03-18T04:23:27.072Z,4.70
2019-03-18T04:24:26.965Z,4.70
2019-03-18T04:26:19.913Z,4.76
2019-03-18T04:27:19.812Z,4.79
2019-03-18T04:29:23.832Z,4.75
2019-03-18T04:30:23.724Z,4.73
2019-03-18T04:32:27.743Z,4.72
2019-03-18T04:33:27.636Z,4.75
2019-03-18T04:35:31.671Z,4.70
2019-03-18T04:36:31.543Z,4.73
2019-03-18T04:38:35.493Z,4.76
2019-03-18T04:39:35.452Z,4.75
2019-03-18T04:41:39.463Z,4.75
2019-03-18T04:42:39.364Z,4.75
2019-03-18T04:44:43.375Z,4.75
2019-03-18T04:45:43.274Z,4.70
2019-03-18T04:47:47.282Z,4.70
2019-03-18T04:48:47.183Z,4.73
2019-03-18T04:50:51.192Z,4.72
2019-03-18T04:51:51.084Z,4.72
2019-03-18T04:53:55.101Z,4.76
2019-03-18T04:54:55.002Z,4.75
2019-03-18T04:56:59.024Z,4.73
2019-03-18T04:57:58.914Z,4.79
2019-03-18T05:00:02.924Z,4.64
2019-03-18T05:01:02.824Z,4.69
2019-03-18T05:03:07.764Z,4.64
2019-03-18T05:04:07.652Z,4.64
2019-03-18T05:06:01.366Z,4.57
2019-03-18T05:07:01.324Z,4.52
2019-03-18T05:09:05.352Z,4.57
2019-03-18T05:10:05.275Z,4.55
2019-03-18T05:12:10.161Z,4.42
2019-03-18T05:13:10.062Z,4.46
2019-03-18T05:15:14.100Z,4.43
2019-03-18T05:16:13.972Z,4.39
2019-03-18T05:18:18.924Z,4.40
2019-03-18T05:19:18.802Z,4.34
2019-03-18T05:21:23.748Z,4.36
2019-03-18T05:22:23.638Z,4.34
2019-03-18T05:24:28.586Z,4.37
2019-03-18T05:25:28.473Z,4.32
2019-03-18T05:27:32.495Z,4.36
2019-03-18T05:28:32.454Z,4.34
2019-03-18T05:30:36.390Z,4.44
2019-03-18T05:31:36.294Z,4.33
2019-03-18T05:33:40.305Z,4.34
2019-03-18T05:34:40.209Z,4.47
2019-03-18T05:36:33.156Z,4.46
2019-03-18T05:37:33.052Z,4.47
2019-03-18T05:39:37.923Z,4.46
2019-03-18T05:40:37.885Z,4.33
2019-03-18T05:42:41.894Z,4.40
2019-03-18T05:43:41.837Z,4.43
2019-03-18T05:45:45.742Z,4.44
2019-03-18T05:46:45.712Z,4.36
2019-03-18T05:48:49.712Z,4.32
2019-03-18T05:49:49.626Z,4.42
2019-03-18T05:51:53.624Z,4.33
2019-03-18T05:52:53.523Z,4.44
2019-03-18T05:54:57.562Z,4.42
2019-03-18T05:55:57.433Z,4.33
2019-03-18T05:56:57.406Z,4.28
2019-03-18T05:57:57.415Z,4.29
2019-03-18T05:58:57.343Z,4.26
2019-03-18T05:59:57.325Z,4.34
2019-03-18T06:00:57.281Z,4.33
2019-03-18T06:01:57.242Z,4.26
2019-03-18T06:02:57.213Z,4.33
2019-03-18T06:03:57.243Z,4.28
2019-03-18T06:04:57.159Z,4.29
2019-03-18T06:05:57.153Z,4.28
2019-03-18T06:06:57.095Z,4.25
2019-03-18T06:07:57.063Z,4.34
2019-03-18T06:08:57.021Z,4.25
2019-03-18T06:09:57.085Z,4.29
2019-03-18T06:10:56.963Z,4.29
2019-03-18T06:11:56.997Z,4.34
2019-03-18T06:12:56.913Z,4.40
2019-03-18T06:13:56.914Z,4.33
2019-03-18T06:14:56.846Z,4.33
2019-03-18T06:15:56.922Z,4.34
2019-03-18T06:16:56.777Z,4.44
2019-03-18T06:17:56.822Z,4.36
2019-03-18T06:18:56.734Z,4.43
2019-03-18T06:19:56.682Z,4.47
2019-03-18T06:20:56.742Z,4.51
2019-03-18T06:21:56.630Z,4.42
2019-03-18T06:22:56.651Z,4.46
2019-03-18T06:23:56.552Z,4.50
2019-03-18T06:24:56.563Z,4.59
2019-03-18T06:25:56.517Z,4.57
2019-03-18T06:26:56.578Z,4.54
2019-03-18T06:27:56.442Z,4.58
2019-03-18T06:28:56.487Z,4.61
2019-03-18T06:29:56.362Z,4.59
2019-03-18T06:30:56.408Z,4.58
2019-03-18T06:31:56.314Z,4.64
2019-03-18T06:32:56.307Z,4.61
2019-03-18T06:33:56.241Z,4.61
2019-03-18T06:34:56.325Z,4.55
2019-03-18T06:35:56.172Z,4.62
2019-03-18T06:36:56.223Z,4.57
2019-03-18T06:37:56.111Z,4.58
2019-03-18T06:38:56.134Z,4.69
2019-03-18T06:39:56.052Z,4.69
2019-03-18T06:40:56.022Z,4.64
2019-03-18T06:41:56.005Z,4.77
2019-03-18T06:42:56.064Z,4.79
2019-03-18T06:43:55.934Z,4.72
2019-03-18T06:44:55.973Z,4.75
2019-03-18T06:45:55.872Z,4.75
2019-03-18T06:46:55.832Z,4.79
2019-03-18T06:48:04.697Z,4.76
2019-03-18T06:48:55.775Z,4.67
2019-03-18T06:49:55.803Z,4.76
2019-03-18T06:50:55.713Z,4.77
2019-03-18T06:51:55.672Z,4.65
2019-03-18T06:52:55.654Z,4.65
2019-03-18T06:53:55.714Z,4.72
2019-03-18T06:54:55.583Z,4.75
2019-03-18T06:55:55.636Z,4.77
2019-03-18T06:56:55.532Z,4.77
2019-03-18T06:57:55.494Z,4.89
2019-03-18T06:58:55.461Z,4.86
2019-03-18T06:59:55.462Z,4.95
2019-03-18T07:00:55.402Z,4.89
2019-03-18T07:01:55.463Z,4.89
2019-03-18T07:02:55.333Z,4.96
2019-03-18T07:03:55.372Z,4.99
2019-03-18T07:04:55.286Z,4.99
2019-03-18T07:05:55.295Z,4.96
2019-03-18T07:06:55.212Z,5.05
2019-03-18T07:07:55.290Z,5.10
2019-03-18T07:08:55.195Z,5.07
2019-03-18T07:09:55.134Z,5.16
2019-03-18T07:10:55.101Z,5.16
2019-03-18T07:11:55.061Z,5.16
2019-03-18T07:12:55.128Z,5.14
2019-03-18T07:13:54.998Z,5.13
2019-03-18T07:14:55.031Z,5.14
2019-03-18T07:15:54.934Z,5.16
2019-03-18T07:16:54.946Z,5.14
2019-03-18T07:17:54.873Z,5.04
2019-03-18T07:18:54.963Z,5.19
2019-03-18T07:19:54.834Z,5.12
2019-03-18T07:20:54.866Z,5.16
2019-03-18T07:21:54.753Z,5.22
2019-03-18T07:22:54.773Z,5.25
2019-03-18T07:23:54.681Z,5.31
2019-03-18T07:24:54.681Z,5.28
2019-03-18T07:25:54.622Z,5.32
2019-03-18T07:26:54.695Z,5.30
2019-03-18T07:27:54.564Z,5.31
2019-03-18T07:28:54.633Z,5.46
2019-03-18T07:29:54.514Z,5.37
2019-03-18T07:30:54.473Z,5.35
2019-03-18T07:31:54.447Z,5.45
2019-03-18T07:32:54.423Z,5.46
2019-03-18T07:33:54.371Z,5.43
2019-03-18T07:34:54.444Z,5.50
2019-03-18T07:35:54.313Z,5.55
2019-03-18T07:36:54.304Z,5.56
2019-03-18T07:37:54.363Z,5.64
2019-03-18T07:38:54.226Z,5.63
2019-03-18T07:39:54.263Z,5.60
2019-03-18T07:40:54.163Z,5.68
2019-03-18T07:41:54.133Z,5.63
2019-03-18T07:42:54.096Z,5.70
2019-03-18T07:43:54.085Z,5.70
2019-03-18T07:44:54.045Z,5.82
2019-03-18T07:45:54.103Z,5.77
2019-03-18T07:46:53.972Z,5.83
2019-03-18T07:47:53.954Z,5.77
2019-03-18T07:48:54.014Z,5.82
2019-03-18T07:49:53.881Z,5.85
2019-03-18T07:50:53.924Z,5.88
2019-03-18T07:51:53.823Z,5.91
2019-03-18T07:52:53.792Z,5.92
2019-03-18T07:53:53.773Z,5.98
2019-03-18T07:54:53.741Z,6.00
2019-03-18T07:55:53.703Z,6.03
2019-03-18T07:56:53.763Z,6.07
2019-03-18T07:57:53.642Z,6.10
2019-03-18T07:58:54.693Z,6.09
2019-03-18T07:59:53.584Z,6.13
2019-03-18T08:00:53.605Z,6.06
2019-03-18T08:01:53.524Z,6.22
2019-03-18T08:02:53.595Z,6.29
2019-03-18T08:03:53.493Z,6.33
2019-03-18T08:04:53.424Z,6.33
2019-03-18T08:05:53.504Z,6.32
2019-03-18T08:06:53.376Z,6.38
2019-03-18T08:07:53.413Z,6.47
2019-03-18T08:08:53.592Z,6.51
2019-03-18T08:09:53.325Z,6.50
2019-03-18T08:10:53.244Z,6.46
2019-03-18T08:11:53.345Z,6.61
2019-03-18T08:12:53.194Z,6.69
2019-03-18T08:13:53.254Z,6.66
2019-03-18T08:14:53.152Z,6.65
2019-03-18T08:15:53.102Z,6.68
2019-03-18T08:16:53.174Z,6.77
2019-03-18T08:17:53.034Z,6.76
2019-03-18T08:18:53.072Z,6.73
2019-03-18T08:19:52.973Z,6.80
2019-03-18T08:20:52.982Z,6.90
2019-03-18T08:21:52.914Z,6.84
2019-03-18T08:22:52.905Z,6.89
2019-03-18T08:23:52.851Z,6.94
2019-03-18T08:24:52.911Z,6.90
2019-03-18T08:25:52.801Z,6.95
2019-03-18T08:26:52.841Z,6.91
2019-03-18T08:27:52.733Z,6.91
2019-03-18T08:28:52.764Z,7.08
2019-03-18T08:29:52.671Z,7.08
2019-03-18T08:30:52.664Z,7.04
2019-03-18T08:31:52.626Z,7.04
2019-03-18T08:32:52.694Z,7.12
2019-03-18T08:33:52.554Z,7.16
2019-03-18T08:34:52.592Z,7.16
2019-03-18T08:35:52.495Z,7.16
2019-03-18T08:36:52.463Z,7.17
2019-03-18T08:37:54.795Z,7.17
2019-03-18T08:38:52.534Z,7.19
2019-03-18T08:39:52.374Z,7.20
2019-03-18T08:40:52.434Z,7.27
2019-03-18T08:41:52.314Z,7.23
2019-03-18T08:42:52.343Z,7.27
2019-03-18T08:43:52.252Z,7.37
2019-03-18T08:44:52.253Z,7.34
2019-03-18T08:45:52.195Z,7.42
2019-03-18T08:46:52.261Z,7.41
2019-03-18T08:47:52.143Z,7.47
2019-03-18T08:48:55.927Z,7.52
2019-03-18T08:49:52.083Z,7.52
2019-03-18T08:50:52.093Z,7.58
2019-03-18T08:51:52.033Z,7.59
2019-03-18T08:52:52.005Z,7.50
2019-03-18T08:53:51.967Z,7.50
2019-03-18T08:54:52.022Z,7.60
2019-03-18T08:55:51.903Z,7.77
2019-03-18T08:56:51.924Z,7.75
2019-03-18T08:57:51.844Z,7.72
2019-03-18T08:58:51.841Z,7.78
2019-03-18T08:59:51.785Z,7.75
2019-03-18T09:00:51.868Z,7.82
2019-03-18T09:01:51.724Z,7.87
2019-03-18T09:02:51.763Z,7.84
2019-03-18T09:03:51.771Z,7.85
2019-03-18T09:04:51.633Z,7.93
2019-03-18T09:05:51.688Z,7.92
2019-03-18T09:06:51.583Z,7.97
2019-03-18T09:07:51.604Z,7.97
2019-03-18T09:08:51.525Z,8.00
2019-03-18T09:09:51.504Z,8.10
2019-03-18T09:10:51.466Z,8.08
2019-03-18T09:11:51.535Z,8.08
2019-03-18T09:12:51.401Z,8.08
2019-03-18T09:13:51.435Z,8.11
2019-03-18T09:14:51.352Z,8.20
2019-03-18T09:15:51.343Z,8.22
2019-03-18T09:16:51.294Z,8.25
2019-03-18T09:17:51.373Z,8.26
2019-03-18T09:18:51.233Z,8.29
2019-03-18T09:19:51.202Z,8.33
2019-03-18T09:20:51.177Z,8.39
2019-03-18T09:21:51.183Z,8.51
2019-03-18T09:22:51.124Z,8.53
2019-03-18T09:23:51.193Z,8.73
2019-03-18T09:24:51.053Z,9.13
2019-03-18T09:25:51.033Z,9.28
2019-03-18T09:27:01.770Z,9.60
2019-03-18T09:27:50.974Z,10.19
2019-03-18T09:28:51.023Z,10.89
2019-03-18T09:29:50.915Z,11.57
2019-03-18T09:30:50.895Z,12.21
2019-03-18T09:31:50.941Z,12.70
2019-03-18T09:32:50.838Z,12.96
2019-03-18T09:33:50.874Z,13.25
2019-03-18T09:34:50.771Z,13.58
2019-03-18T09:35:50.772Z,13.89
2019-03-18T09:36:50.712Z,13.91
2019-03-18T09:37:50.797Z,13.56
2019-03-18T09:38:50.663Z,13.25
2019-03-18T09:39:50.703Z,12.93
2019-03-18T09:40:50.605Z,12.89
2019-03-18T09:41:50.584Z,12.64
2019-03-18T09:42:50.614Z,12.30
2019-03-18T09:43:50.533Z,11.85
2019-03-18T09:44:50.522Z,12.19
2019-03-18T09:45:50.482Z,12.59
2019-03-18T09:46:50.466Z,12.85
2019-03-18T09:47:50.423Z,12.93
2019-03-18T09:48:50.453Z,12.77
2019-03-18T09:49:50.372Z,12.89
2019-03-18T09:50:50.365Z,12.79
2019-03-18T09:51:50.322Z,12.88
2019-03-18T09:52:50.303Z,12.67
2019-03-18T09:53:50.286Z,12.56
2019-03-18T09:54:50.392Z,12.15
2019-03-18T09:55:50.215Z,11.75
2019-03-18T09:56:50.315Z,11.62
2019-03-18T09:57:50.166Z,11.56
2019-03-18T09:58:50.227Z,11.44
2019-03-18T09:59:50.125Z,11.34
2019-03-18T10:00:50.123Z,11.27
2019-03-18T10:01:50.065Z,11.06
2019-03-18T10:02:50.141Z,11.02
2019-03-18T10:03:50.016Z,10.99
2019-03-18T10:04:50.054Z,10.99
2019-03-18T10:05:49.974Z,10.96
2019-03-18T10:06:49.969Z,10.92
2019-03-18T10:07:49.913Z,10.81
2019-03-18T10:08:49.894Z,10.76
2019-03-18T10:09:49.880Z,10.59
2019-03-18T10:10:49.895Z,10.44
2019-03-18T10:11:49.824Z,10.32
2019-03-18T10:12:49.809Z,10.03
2019-03-18T10:13:49.764Z,9.78
2019-03-18T10:14:49.733Z,9.67
2019-03-18T10:15:49.733Z,9.61
2019-03-18T10:16:49.682Z,9.67
2019-03-18T10:17:49.734Z,9.75
2019-03-18T10:18:49.624Z,9.68
2019-03-18T10:19:49.645Z,9.85
2019-03-18T10:20:49.576Z,10.04
2019-03-18T10:21:49.661Z,10.10
2019-03-18T10:22:49.547Z,10.00
2019-03-18T10:23:49.574Z,9.96
2019-03-18T10:24:49.485Z,9.88
2019-03-18T10:25:49.454Z,9.91
2019-03-18T10:26:49.420Z,9.86
2019-03-18T10:27:49.504Z,9.83
2019-03-18T10:28:49.365Z,9.86
2019-03-18T10:29:49.465Z,10.00
2019-03-18T10:30:49.314Z,10.00
2019-03-18T10:31:49.283Z,10.14
2019-03-18T10:32:49.332Z,10.12
2019-03-18T10:33:49.232Z,10.34
2019-03-18T10:34:49.255Z,10.26
2019-03-18T10:35:49.182Z,10.39
2019-03-18T10:36:49.154Z,10.42
2019-03-18T10:37:49.128Z,10.47
2019-03-18T10:38:49.164Z,10.76
2019-03-18T10:39:49.072Z,10.74
2019-03-18T10:40:49.073Z,10.73
2019-03-18T10:41:49.017Z,10.73
2019-03-18T10:42:48.994Z,10.65
2019-03-18T10:43:48.996Z,10.77
2019-03-18T10:44:48.946Z,10.84
2019-03-18T10:45:49.013Z,10.86
2019-03-18T10:46:48.886Z,10.86
2019-03-18T10:47:48.875Z,10.80
2019-03-18T10:48:48.835Z,10.60
2019-03-18T10:49:48.833Z,10.44
2019-03-18T10:50:48.774Z,10.46
2019-03-18T10:51:48.845Z,10.40
2019-03-18T10:52:48.754Z,10.40
2019-03-18T10:53:48.706Z,10.34
2019-03-18T10:54:48.721Z,10.44
2019-03-18T10:55:48.673Z,10.56
2019-03-18T10:56:48.625Z,11.02
2019-03-18T10:57:48.684Z,11.20
2019-03-18T10:58:48.587Z,11.19
2019-03-18T10:59:48.545Z,11.36
2019-03-18T11:00:48.610Z,11.41
2019-03-18T11:01:48.493Z,11.44
2019-03-18T11:02:48.514Z,11.59
2019-03-18T11:03:48.434Z,11.59
2019-03-18T11:04:48.416Z,11.59
2019-03-18T11:05:48.385Z,11.59
2019-03-18T11:06:48.449Z,11.78
2019-03-18T11:07:48.335Z,12.04
2019-03-18T11:08:48.359Z,11.71
2019-03-18T11:09:48.282Z,11.70
2019-03-18T11:10:48.255Z,11.65
2019-03-18T11:11:48.272Z,11.59
2019-03-18T11:12:48.213Z,11.47
2019-03-18T11:13:48.284Z,11.25
2019-03-18T11:14:48.153Z,11.13
2019-03-18T11:15:48.122Z,11.17
2019-03-18T11:16:48.103Z,11.03
2019-03-18T11:17:48.124Z,11.01
2019-03-18T11:18:48.053Z,11.02
2019-03-18T11:19:57.794Z,11.09
2019-03-18T11:20:48.014Z,11.06
2019-03-18T11:21:47.990Z,11.34
2019-03-18T11:22:48.045Z,12.38
2019-03-18T11:23:47.924Z,13.07
2019-03-18T11:24:47.964Z,13.67
2019-03-18T11:25:47.872Z,14.27
2019-03-18T11:26:47.848Z,14.62
2019-03-18T11:27:47.860Z,14.86
2019-03-18T11:28:47.882Z,15.08
2019-03-18T11:29:47.776Z,15.19
2019-03-18T11:30:47.791Z,14.69
2019-03-18T11:31:47.727Z,14.29
2019-03-18T11:32:47.693Z,13.92
2019-03-18T11:33:47.663Z,14.37
2019-03-18T11:34:47.730Z,15.15
2019-03-18T11:35:47.622Z,15.72
2019-03-18T11:36:47.644Z,15.93
2019-03-18T11:37:47.580Z,16.38
2019-03-18T11:38:47.643Z,16.85
2019-03-18T11:39:47.536Z,17.33
2019-03-18T11:40:47.555Z,17.48
2019-03-18T11:41:47.474Z,17.03
2019-03-18T11:42:47.463Z,16.25
2019-03-18T11:43:47.484Z,15.54
2019-03-18T11:44:47.406Z,14.84
2019-03-18T11:45:47.493Z,14.17
2019-03-18T11:46:47.353Z,13.55
2019-03-18T11:47:47.407Z,13.14
2019-03-18T11:48:47.302Z,12.78
2019-03-18T11:49:47.325Z,12.69
2019-03-18T11:50:47.264Z,12.45
2019-03-18T11:51:47.324Z,12.21
2019-03-18T11:52:47.216Z,12.05
2019-03-18T11:53:47.241Z,11.94
2019-03-18T11:54:47.242Z,11.80
2019-03-18T11:55:47.143Z,11.64
2019-03-18T11:56:47.187Z,11.65
2019-03-18T11:57:47.095Z,11.44
2019-03-18T11:58:47.173Z,11.28
2019-03-18T11:59:47.061Z,11.20
2019-03-18T12:00:47.082Z,11.20
2019-03-18T12:01:46.995Z,11.09
2019-03-18T12:02:46.992Z,10.92
2019-03-18T12:03:46.943Z,10.78
2019-03-18T12:04:47.013Z,10.70
2019-03-18T12:05:46.915Z,10.56
2019-03-18T12:06:47.001Z,10.46
2019-03-18T12:07:46.934Z,10.37
2019-03-18T12:08:47.006Z,10.34
2019-03-18T12:09:46.844Z,10.10
2019-03-18T12:10:46.776Z,10.00
2019-03-18T12:11:46.853Z,9.89
2019-03-18T12:12:46.723Z,9.86
2019-03-18T12:13:46.783Z,9.83
2019-03-18T12:14:46.664Z,9.73
2019-03-18T12:15:46.685Z,9.63
2019-03-18T12:16:46.624Z,9.52
2019-03-18T12:17:46.702Z,9.35
2019-03-18T12:18:46.563Z,9.18
2019-03-18T12:19:46.615Z,9.10
2019-03-18T12:20:46.511Z,8.86
2019-03-18T12:21:46.491Z,8.81
2019-03-18T12:22:46.473Z,8.72
2019-03-18T12:23:46.534Z,8.72
2019-03-18T12:24:46.414Z,8.78
2019-03-18T12:25:46.447Z,8.84
2019-03-18T12:26:49.114Z,8.83
2019-03-18T12:27:46.332Z,8.81
2019-03-18T12:28:46.382Z,8.79
2019-03-18T12:29:46.294Z,8.84
2019-03-18T12:30:46.273Z,8.88
2019-03-18T12:31:46.222Z,8.97
2019-03-18T12:32:46.204Z,9.05
2019-03-18T12:33:46.171Z,9.15
2019-03-18T12:34:46.203Z,9.28
2019-03-18T12:35:46.116Z,9.30
2019-03-18T12:36:46.113Z,9.49
2019-03-18T12:37:46.066Z,9.60
2019-03-18T12:38:46.033Z,9.76
2019-03-18T12:39:46.031Z,9.83
2019-03-18T12:40:45.983Z,9.94
2019-03-18T12:41:46.056Z,10.07
2019-03-18T12:42:46.014Z,9.99
2019-03-18T12:43:45.901Z,10.01
2019-03-18T12:44:46.046Z,10.04
2019-03-18T12:45:45.859Z,9.96
2019-03-18T12:46:45.872Z,9.83
2019-03-18T12:47:45.813Z,9.89
2019-03-18T12:48:45.795Z,9.81
2019-03-18T12:49:45.796Z,9.70
2019-03-18T12:50:55.874Z,9.66
2019-03-18T12:51:45.692Z,9.61
2019-03-18T12:52:45.713Z,9.61
2019-03-18T12:53:45.658Z,9.67
2019-03-18T12:54:45.600Z,9.61
2019-03-18T12:55:45.581Z,9.75
2019-03-18T12:56:45.643Z,10.01
2019-03-18T12:57:45.532Z,10.33
2019-03-18T12:58:45.555Z,10.44
2019-03-18T12:59:45.495Z,10.71
2019-03-18T13:00:45.454Z,10.99
2019-03-18T13:01:45.422Z,11.34
2019-03-18T13:02:45.483Z,11.83
2019-03-18T13:03:45.383Z,12.08
2019-03-18T13:04:45.403Z,11.99
2019-03-18T13:05:45.334Z,12.12
2019-03-18T13:06:45.400Z,12.30
2019-03-18T13:07:45.272Z,12.56
2019-03-18T13:08:45.330Z,12.74
2019-03-18T13:09:45.223Z,12.74
2019-03-18T13:10:45.248Z,12.71
2019-03-18T13:11:45.163Z,12.74
2019-03-18T13:12:45.253Z,12.96
2019-03-18T13:13:45.112Z,13.12
2019-03-18T13:14:45.154Z,13.15
2019-03-18T13:15:45.063Z,13.17
2019-03-18T13:16:45.031Z,13.07
2019-03-18T13:17:45.014Z,13.22
2019-03-18T13:18:45.094Z,13.33
2019-03-18T13:19:44.962Z,13.30
2019-03-18T13:20:45.000Z,13.18
2019-03-18T13:21:44.927Z,13.14
2019-03-18T13:22:44.885Z,13.17
2019-03-18T13:23:44.912Z,13.18
2019-03-18T13:24:44.833Z,13.03
2019-03-18T13:25:44.820Z,12.99
2019-03-18T13:26:44.781Z,12.99
2019-03-18T13:27:44.770Z,13.00
2019-03-18T13:28:44.732Z,13.06
2019-03-18T13:29:44.751Z,13.36
2019-03-18T13:30:44.693Z,13.47
2019-03-18T13:31:44.761Z,13.52
2019-03-18T13:32:44.633Z,13.54
2019-03-18T13:33:44.611Z,13.43
2019-03-18T13:34:44.583Z,13.30
2019-03-18T13:35:44.593Z,13.43
2019-03-18T13:36:44.532Z,13.29
2019-03-18T13:37:44.603Z,13.33
2019-03-18T13:38:44.561Z,13.32
2019-03-18T13:39:44.523Z,13.43
2019-03-18T13:40:45.975Z,13.58
2019-03-18T13:41:44.532Z,13.80
2019-03-18T13:42:44.394Z,13.79
2019-03-18T13:43:44.441Z,13.67
2019-03-18T13:44:44.441Z,13.43
2019-03-18T13:45:54.726Z,13.18
2019-03-18T13:46:44.291Z,13.06
2019-03-18T13:47:44.361Z,13.18
2019-03-18T13:48:44.251Z,13.29
2019-03-18T13:49:44.273Z,13.51
2019-03-18T13:50:44.202Z,13.41
2019-03-18T13:51:44.193Z,13.33
2019-03-18T13:52:44.142Z,13.25
2019-03-18T13:53:44.200Z,13.04
2019-03-18T13:54:44.104Z,13.11
2019-03-18T13:55:44.072Z,13.24
2019-03-18T13:56:44.044Z,13.54
2019-03-18T13:57:44.130Z,13.55
2019-03-18T13:58:43.990Z,13.67
2019-03-18T13:59:44.052Z,13.61
2019-03-18T14:00:43.953Z,13.67
2019-03-18T14:01:43.927Z,13.63
2019-03-18T14:02:43.961Z,13.70
2019-03-18T14:03:43.870Z,13.63
2019-03-18T14:04:43.870Z,13.69
2019-03-18T14:05:43.831Z,13.76
2019-03-18T14:06:43.802Z,13.56
2019-03-18T14:07:43.788Z,13.25
2019-03-18T14:08:43.802Z,13.09
2019-03-18T14:09:43.730Z,12.74
2019-03-18T14:10:43.842Z,12.67
2019-03-18T14:11:43.682Z,12.54
2019-03-18T14:12:43.733Z,12.34
2019-03-18T14:13:43.632Z,12.19
2019-03-18T14:14:43.642Z,12.16
2019-03-18T14:15:43.594Z,12.05
2019-03-18T14:16:43.650Z,12.01
2019-03-18T14:17:43.536Z,12.01
2019-03-18T14:18:43.575Z,11.96
2019-03-18T14:19:43.493Z,11.89
2019-03-18T14:20:43.482Z,11.75
2019-03-18T14:21:43.443Z,11.74
2019-03-18T14:22:43.410Z,11.62
2019-03-18T14:23:43.395Z,11.53
2019-03-18T14:24:43.401Z,11.39